createdAt,value
2023-02-12T00:01:25.801Z,25.33
2023-02-12T00:03:54.197Z,29.00
2023-02-12T00:06:22.664Z,29.77
2023-02-12T00:08:51.744Z,26.00
2023-02-12T00:11:22.988Z,28.87
2023-02-12T00:13:51.605Z,28.60
2023-02-12T00:16:21.655Z,30.07
2023-02-12T00:18:52.877Z,27.33
2023-02-12T00:21:21.445Z,26.80
2023-02-12T00:23:49.984Z,30.17
2023-02-12T00:26:20.787Z,26.20
2023-02-12T00:28:53.005Z,27.63
2023-02-12T00:31:23.634Z,26.83
2023-02-12T00:33:51.800Z,25.65
2023-02-12T00:36:21.897Z,28.13
2023-02-12T00:38:54.877Z,26.48
2023-02-12T00:41:25.758Z,29.67
2023-02-12T00:43:55.268Z,27.20
2023-02-12T00:46:23.833Z,29.60
2023-02-12T00:48:52.135Z,30.13
2023-02-12T00:51:21.458Z,31.23
2023-02-12T00:53:49.505Z,34.33
2023-02-12T00:56:17.515Z,27.30
2023-02-12T00:58:45.605Z,28.87
2023-02-12T01:01:15.128Z,29.30
2023-02-12T01:03:43.372Z,29.53
2023-02-12T01:06:11.378Z,27.67
2023-02-12T01:08:39.470Z,29.77
2023-02-12T01:11:07.780Z,26.83
2023-02-12T01:13:36.525Z,30.63
2023-02-12T01:16:08.645Z,26.77
2023-02-12T01:18:38.990Z,28.23
2023-02-12T01:21:12.302Z,30.42
2023-02-12T01:23:40.721Z,32.23
2023-02-12T01:26:10.813Z,28.03
2023-02-12T01:28:39.209Z,28.13
2023-02-12T01:31:11.709Z,30.88
2023-02-12T01:33:41.829Z,26.10
2023-02-12T01:36:11.561Z,27.23
2023-02-12T01:38:39.690Z,27.03
2023-02-12T01:41:11.473Z,28.87
2023-02-12T01:43:40.680Z,26.05
2023-02-12T01:46:10.918Z,26.30
2023-02-12T01:48:43.401Z,27.23
2023-02-12T01:56:04.396Z,26.35
2023-02-12T01:58:37.225Z,29.87
2023-02-12T02:01:07.762Z,30.10
2023-02-12T02:03:38.845Z,27.98
2023-02-12T02:08:40.737Z,26.73
2023-02-12T02:11:25.527Z,30.07
2023-02-12T02:14:11.533Z,26.63
2023-02-12T02:16:46.045Z,26.63
2023-02-12T02:19:31.483Z,24.83
2023-02-12T02:22:18.617Z,28.37
2023-02-12T02:25:26.802Z,30.00
2023-02-12T02:28:07.687Z,25.17
2023-02-12T02:30:45.317Z,25.92
2023-02-12T02:33:41.031Z,24.37
2023-02-12T02:36:20.952Z,29.10
2023-02-12T02:38:55.926Z,29.03
2023-02-12T02:41:31.199Z,26.93
2023-02-12T02:44:01.218Z,26.30
2023-02-12T02:46:36.003Z,27.23
2023-02-12T02:49:07.043Z,26.23
2023-02-12T02:54:10.436Z,33.50
2023-02-12T02:56:42.618Z,27.23
2023-02-12T02:59:14.191Z,29.80
2023-02-12T03:01:48.199Z,27.53
2023-02-12T03:04:22.404Z,27.83
2023-02-12T03:06:56.721Z,26.87
2023-02-12T03:09:30.700Z,22.57
2023-02-12T03:12:03.683Z,25.53
2023-02-12T03:14:34.831Z,23.13
2023-02-12T03:17:10.082Z,25.80
2023-02-12T03:19:43.357Z,22.23
2023-02-12T03:22:15.633Z,27.67
2023-02-12T03:24:48.857Z,27.03
2023-02-12T03:27:22.173Z,24.30
2023-02-12T03:29:50.443Z,25.40
2023-02-12T03:32:30.588Z,27.87
2023-02-12T03:35:09.827Z,21.47
2023-02-12T03:37:41.720Z,22.70
2023-02-12T03:40:18.288Z,25.17
2023-02-12T03:42:53.063Z,25.83
2023-02-12T03:45:28.008Z,22.77
2023-02-12T03:48:03.471Z,25.47
2023-02-12T03:50:41.855Z,26.03
2023-02-12T03:53:09.925Z,24.60
2023-02-12T03:55:43.411Z,23.73
2023-02-12T03:58:15.909Z,22.23
2023-02-12T04:00:44.465Z,23.00
2023-02-12T04:03:14.040Z,23.10
2023-02-12T04:05:42.238Z,19.80
2023-02-12T04:08:12.713Z,23.60
2023-02-12T04:10:54.253Z,22.45
2023-02-12T04:13:27.463Z,21.93
2023-02-12T04:16:08.516Z,22.23
2023-02-12T04:18:43.174Z,24.00
2023-02-12T04:21:19.793Z,25.73
2023-02-12T04:24:03.093Z,22.43
2023-02-12T04:26:38.299Z,22.90
2023-02-12T04:29:20.527Z,23.30
2023-02-12T04:31:55.405Z,24.73
2023-02-12T04:34:33.979Z,21.33
2023-02-12T04:37:07.088Z,22.37
2023-02-12T04:39:38.865Z,26.23
2023-02-12T04:42:07.187Z,27.37
2023-02-12T04:44:38.790Z,22.90
2023-02-12T04:47:06.863Z,20.27
2023-02-12T04:49:36.366Z,22.20
2023-02-12T04:52:04.533Z,22.40
2023-02-12T04:54:32.684Z,25.87
2023-02-12T04:57:00.900Z,25.50
2023-02-12T04:59:28.946Z,28.93
2023-02-12T05:01:57.011Z,28.67
2023-02-12T05:04:24.998Z,32.03
2023-02-12T05:06:54.396Z,31.97
2023-02-12T05:09:23.776Z,26.33
2023-02-12T05:11:51.849Z,33.03
2023-02-12T05:14:20.005Z,31.07
2023-02-12T05:16:48.193Z,28.77
2023-02-12T05:19:16.263Z,29.67
2023-02-12T05:21:44.389Z,30.80
2023-02-12T05:24:13.844Z,30.33
2023-02-12T05:26:42.020Z,33.20
2023-02-12T05:29:10.343Z,27.77
2023-02-12T05:31:38.451Z,28.53
2023-02-12T05:34:11.244Z,28.87
2023-02-12T05:36:40.814Z,28.63
2023-02-12T05:39:09.869Z,30.40
2023-02-12T05:41:39.350Z,28.93
2023-02-12T05:44:07.636Z,29.00
2023-02-12T05:46:35.917Z,28.47
2023-02-12T05:49:06.238Z,26.83
2023-02-12T05:51:34.617Z,27.00
2023-02-12T05:54:05.991Z,30.50
2023-02-12T05:56:36.179Z,28.33
2023-02-12T05:59:07.855Z,29.55
2023-02-12T06:01:38.158Z,33.83
2023-02-12T06:04:09.003Z,29.98
2023-02-12T06:06:37.163Z,30.13
2023-02-12T06:09:05.437Z,25.87
2023-02-12T06:11:33.548Z,33.50
2023-02-12T06:14:03.943Z,26.07
2023-02-12T06:16:34.306Z,25.05
2023-02-12T06:19:04.739Z,25.95
2023-02-12T06:21:33.530Z,26.73
2023-02-12T06:24:02.015Z,25.07
2023-02-12T06:26:30.408Z,24.40
2023-02-12T06:28:58.485Z,24.30
2023-02-12T06:31:28.721Z,26.23
2023-02-12T06:34:01.284Z,19.83
2023-02-12T06:36:29.958Z,23.10
2023-02-12T06:39:02.198Z,24.40
2023-02-12T06:41:30.711Z,21.53
2023-02-12T06:43:59.018Z,25.47
2023-02-12T06:46:27.645Z,24.97
2023-02-12T06:48:59.412Z,21.10
2023-02-12T06:51:31.458Z,20.20
2023-02-12T06:54:00.029Z,24.37
2023-02-12T06:56:28.726Z,23.90
2023-02-12T06:58:59.645Z,20.27
2023-02-12T07:01:30.310Z,20.15
2023-02-12T07:04:03.273Z,19.13
2023-02-12T07:06:35.349Z,19.60
2023-02-12T07:09:03.980Z,18.63
2023-02-12T07:11:36.854Z,21.97
2023-02-12T07:14:06.556Z,17.70
2023-02-12T07:16:34.710Z,19.70
2023-02-12T07:19:02.787Z,18.53
2023-02-12T07:21:33.078Z,17.47
2023-02-12T07:24:01.185Z,17.48
2023-02-12T07:26:29.175Z,16.27
2023-02-12T07:29:01.219Z,15.73
2023-02-12T07:31:29.423Z,13.20
2023-02-12T07:33:59.110Z,15.17
2023-02-12T07:36:29.023Z,15.30
2023-02-12T07:43:50.736Z,11.87
2023-02-12T07:46:21.061Z,9.82
2023-02-12T07:48:49.151Z,11.68
2023-02-12T07:51:19.934Z,9.77
2023-02-12T07:53:48.187Z,9.95
2023-02-12T07:56:17.948Z,11.43
2023-02-12T07:58:47.464Z,12.50
2023-02-12T08:01:19.315Z,10.80
2023-02-12T08:03:48.353Z,11.10
2023-02-12T08:06:19.001Z,10.67
2023-02-12T08:08:47.491Z,12.75
2023-02-12T08:11:16.648Z,8.37
2023-02-12T08:13:45.045Z,10.30
2023-02-12T08:16:15.036Z,12.13
2023-02-12T08:18:44.828Z,11.23
2023-02-12T08:21:14.958Z,16.17
2023-02-12T08:23:43.442Z,13.23
2023-02-12T08:26:13.759Z,9.63
2023-02-12T08:28:44.259Z,10.15
2023-02-12T08:31:14.962Z,11.10
2023-02-12T08:33:46.157Z,9.02
2023-02-12T08:36:16.502Z,9.37
2023-02-12T08:38:46.852Z,9.00
2023-02-12T08:41:16.721Z,7.88
2023-02-12T08:43:45.250Z,5.00
2023-02-12T08:46:15.283Z,6.63
2023-02-12T08:48:45.502Z,7.67
2023-02-12T08:51:15.721Z,9.73
2023-02-12T08:53:46.352Z,4.43
2023-02-12T08:56:16.844Z,6.65
2023-02-12T08:58:45.400Z,5.65
2023-02-12T09:01:16.414Z,5.40
2023-02-12T09:06:15.760Z,5.10
2023-02-12T09:08:43.826Z,6.73
2023-02-12T09:11:14.056Z,8.30
2023-02-12T09:13:42.134Z,6.18
2023-02-12T09:16:10.708Z,6.73
2023-02-12T09:18:39.176Z,6.83
2023-02-12T09:21:10.921Z,5.20
2023-02-12T09:23:39.689Z,11.33
2023-02-12T09:26:09.383Z,5.57
2023-02-12T09:28:37.835Z,4.97
2023-02-12T09:31:07.418Z,6.70
2023-02-12T09:33:35.670Z,6.10
2023-02-12T09:36:04.301Z,6.03
2023-02-12T09:38:34.511Z,4.83
2023-02-12T09:41:24.112Z,4.55
2023-02-12T09:43:58.130Z,3.87
2023-02-12T09:46:31.662Z,5.50
2023-02-12T09:49:09.000Z,6.13
2023-02-12T09:51:39.382Z,6.00
2023-02-12T09:54:14.337Z,6.63
2023-02-12T09:56:45.806Z,6.00
2023-02-12T09:59:27.279Z,5.40
2023-02-12T10:01:55.368Z,6.67
2023-02-12T10:04:24.795Z,5.07
2023-02-12T10:07:00.801Z,6.87
2023-02-12T10:09:48.386Z,5.07
2023-02-12T10:12:28.544Z,5.50
2023-02-12T10:15:22.023Z,4.37
2023-02-12T10:17:59.302Z,4.63
2023-02-12T10:21:08.524Z,3.17
2023-02-12T10:24:01.891Z,5.70
2023-02-12T10:26:34.362Z,5.60
2023-02-12T10:29:12.254Z,4.73
2023-02-12T10:31:45.150Z,6.07
2023-02-12T10:34:19.209Z,7.83
2023-02-12T10:36:50.068Z,6.93
2023-02-12T10:39:23.572Z,6.72
2023-02-12T10:41:59.425Z,4.30
2023-02-12T10:44:27.540Z,3.47
2023-02-12T10:46:55.624Z,3.73
2023-02-12T10:49:23.703Z,3.47
2023-02-12T10:52:03.180Z,4.13
2023-02-12T10:54:43.442Z,3.03
2023-02-12T10:57:16.820Z,3.00
2023-02-12T10:59:46.700Z,4.17
2023-02-12T11:06:24.058Z,2.30
2023-02-12T11:08:52.872Z,1.90
2023-02-12T11:11:26.248Z,2.80
2023-02-12T11:14:03.824Z,2.27
2023-02-12T11:16:34.257Z,2.60
2023-02-12T11:19:04.839Z,1.65
2023-02-12T11:21:33.622Z,0.98
2023-02-12T11:24:22.909Z,0.83
2023-02-12T11:26:50.937Z,1.23
2023-02-12T11:29:23.649Z,1.93
2023-02-12T11:32:10.503Z,2.33
2023-02-12T11:34:38.958Z,1.47
2023-02-12T11:37:17.352Z,1.03
2023-02-12T11:39:49.150Z,1.87
2023-02-12T11:42:19.684Z,3.83
2023-02-12T11:44:53.437Z,2.00
2023-02-12T11:47:25.563Z,1.53
2023-02-12T11:49:57.822Z,2.67
2023-02-12T11:52:29.426Z,1.67
2023-02-12T11:55:01.978Z,5.13
2023-02-12T11:57:37.042Z,3.23
2023-02-12T12:00:15.345Z,2.30
2023-02-12T12:02:59.048Z,3.37
2023-02-12T12:05:32.849Z,3.53
2023-02-12T12:08:05.058Z,3.23
2023-02-12T12:10:37.755Z,3.37
2023-02-12T12:13:11.501Z,4.80
2023-02-12T12:16:04.995Z,2.47
2023-02-12T12:18:55.164Z,1.67
2023-02-12T12:21:30.418Z,1.87
2023-02-12T12:24:03.822Z,1.87
2023-02-12T12:26:35.062Z,2.30
2023-02-12T12:29:07.322Z,4.83
2023-02-12T12:31:40.774Z,1.83
2023-02-12T12:34:11.402Z,1.93
2023-02-12T12:36:57.149Z,2.83
2023-02-12T12:39:34.115Z,3.10
2023-02-12T12:42:28.324Z,1.80
2023-02-12T12:45:20.845Z,1.47
2023-02-12T12:48:05.142Z,2.47
2023-02-12T12:50:56.042Z,2.17
2023-02-12T12:53:42.268Z,3.30
2023-02-12T12:56:30.382Z,3.60
2023-02-12T12:59:21.884Z,8.77
2023-02-12T13:02:14.042Z,7.60
2023-02-12T13:04:58.546Z,2.90
2023-02-12T13:07:44.246Z,3.73
2023-02-12T13:10:21.029Z,4.33
2023-02-12T13:13:16.041Z,3.00
2023-02-12T13:15:51.250Z,2.70
2023-02-12T13:18:52.396Z,2.67
2023-02-12T13:21:33.714Z,2.38
2023-02-12T13:24:08.566Z,3.70
2023-02-12T13:26:46.661Z,5.30
2023-02-12T13:29:20.591Z,3.07
2023-02-12T13:31:52.494Z,3.83
2023-02-12T13:34:22.776Z,3.00
2023-02-12T13:36:52.459Z,2.53
2023-02-12T13:39:28.984Z,2.23
2023-02-12T13:42:05.128Z,3.53
2023-02-12T13:44:41.446Z,5.27
2023-02-12T13:47:18.771Z,3.30
2023-02-12T13:49:54.978Z,4.03
2023-02-12T13:52:34.227Z,4.03
2023-02-12T13:55:22.276Z,2.10
2023-02-12T13:58:23.857Z,3.10
2023-02-12T14:01:03.217Z,2.90
2023-02-12T14:03:33.083Z,2.53
2023-02-12T14:06:13.628Z,2.27
2023-02-12T14:08:45.036Z,4.75
2023-02-12T14:11:16.370Z,3.03
2023-02-12T14:13:53.732Z,2.90
2023-02-12T14:16:38.757Z,3.90
2023-02-12T14:19:53.772Z,2.77
2023-02-12T14:23:01.335Z,2.40
2023-02-12T14:25:40.903Z,2.43
2023-02-12T14:28:24.365Z,4.30
2023-02-12T14:31:23.299Z,3.13
2023-02-12T14:35:05.149Z,3.47
2023-02-12T14:38:27.855Z,4.50
2023-02-12T14:41:34.250Z,3.03
2023-02-12T14:44:42.173Z,4.23
2023-02-12T14:48:25.208Z,4.10
2023-02-12T14:50:53.889Z,4.47
2023-02-12T14:53:31.050Z,4.37
2023-02-12T14:56:00.088Z,4.47
2023-02-12T14:58:31.522Z,5.67
2023-02-12T15:01:02.338Z,5.53
2023-02-12T15:03:43.172Z,4.45
2023-02-12T15:06:16.313Z,6.47
2023-02-12T15:08:53.896Z,4.90
2023-02-12T15:11:35.138Z,4.77
2023-02-12T15:16:44.802Z,5.07
2023-02-12T15:19:22.489Z,6.40
2023-02-12T15:21:54.503Z,4.70
2023-02-12T15:24:24.395Z,5.77
2023-02-12T15:26:54.351Z,4.20
2023-02-12T15:33:35.160Z,6.03
2023-02-12T15:36:05.069Z,5.10
2023-02-12T15:38:36.437Z,5.13
2023-02-12T15:41:06.665Z,7.27
2023-02-12T15:43:36.194Z,5.23
2023-02-12T15:46:06.451Z,5.50
2023-02-12T15:48:38.917Z,6.95
2023-02-12T15:51:12.138Z,5.13
2023-02-12T15:53:41.236Z,5.97
2023-02-12T15:56:14.750Z,7.27
2023-02-12T15:58:48.353Z,7.53
2023-02-12T16:01:19.429Z,7.17
2023-02-12T16:06:21.794Z,6.63
2023-02-12T16:08:53.860Z,9.93
2023-02-12T16:11:24.409Z,5.97
2023-02-12T16:13:55.473Z,9.25
2023-02-12T16:16:30.517Z,7.87
2023-02-12T16:19:20.403Z,5.93
2023-02-12T16:21:52.713Z,6.87
2023-02-12T16:24:31.019Z,3.93
2023-02-12T16:27:01.932Z,5.43
2023-02-12T16:29:33.549Z,4.07
2023-02-12T16:32:03.620Z,4.67
2023-02-12T16:34:36.529Z,6.78
2023-02-12T16:37:29.350Z,6.77
2023-02-12T16:40:36.400Z,7.87
2023-02-12T16:43:26.675Z,5.50
2023-02-12T16:46:05.646Z,5.13
2023-02-12T16:48:39.140Z,4.67
2023-02-12T16:51:22.434Z,5.80
2023-02-12T16:53:53.944Z,6.40
2023-02-12T16:56:23.575Z,5.63
2023-02-12T16:58:55.429Z,5.93
2023-02-12T17:01:26.690Z,6.73
2023-02-12T17:03:55.732Z,7.23
2023-02-12T17:06:27.760Z,5.73
2023-02-12T17:08:56.315Z,5.93
2023-02-12T17:11:25.606Z,6.07
2023-02-12T17:13:55.166Z,4.37
2023-02-12T17:16:32.075Z,6.73
2023-02-12T17:19:03.150Z,7.80
2023-02-12T17:21:38.355Z,6.50
2023-02-12T17:24:07.709Z,7.20
2023-02-12T17:26:35.750Z,5.37
2023-02-12T17:29:06.194Z,5.77
2023-02-12T17:31:34.698Z,8.55
2023-02-12T17:34:03.118Z,5.87
2023-02-12T17:36:32.960Z,6.27
2023-02-12T17:39:01.503Z,9.10
2023-02-12T17:41:29.790Z,5.47
2023-02-12T17:43:58.030Z,5.70
2023-02-12T17:46:29.647Z,9.67
2023-02-12T17:48:58.559Z,12.43
2023-02-12T17:51:26.894Z,11.50
2023-02-12T17:53:56.411Z,8.97
2023-02-12T17:56:25.849Z,8.27
2023-02-12T17:58:54.434Z,8.33
2023-02-12T18:01:24.506Z,9.23
2023-02-12T18:03:54.588Z,10.20
2023-02-12T18:06:50.545Z,11.02
2023-02-12T18:09:20.192Z,9.67
2023-02-12T18:11:48.313Z,9.83
2023-02-12T18:14:16.292Z,10.10
2023-02-12T18:16:44.385Z,10.60
2023-02-12T18:19:12.679Z,11.93
2023-02-12T18:21:40.887Z,10.20
2023-02-12T18:26:45.143Z,8.95
2023-02-12T18:29:13.406Z,9.88
2023-02-12T18:31:41.546Z,10.83
2023-02-12T18:34:09.880Z,9.27
2023-02-12T18:36:42.649Z,11.30
2023-02-12T18:39:11.372Z,8.67
2023-02-12T18:41:39.494Z,9.23
2023-02-12T18:44:09.222Z,7.37
2023-02-12T18:46:37.591Z,6.53
2023-02-12T18:49:06.504Z,5.80
2023-02-12T18:51:37.283Z,6.87
2023-02-12T18:54:07.959Z,7.80
2023-02-12T18:56:40.101Z,6.32
2023-02-12T18:59:09.838Z,6.30
2023-02-12T19:01:38.595Z,7.73
2023-02-12T19:04:09.419Z,6.13
2023-02-12T19:06:41.293Z,7.47
2023-02-12T19:09:11.092Z,7.40
2023-02-12T19:11:39.352Z,9.27
2023-02-12T19:14:09.132Z,7.73
2023-02-12T19:16:37.262Z,9.10
2023-02-12T19:19:05.491Z,9.73
2023-02-12T19:21:33.606Z,11.23
2023-02-12T19:24:03.874Z,12.03
2023-02-12T19:26:33.829Z,9.43
2023-02-12T19:29:04.860Z,11.67
2023-02-12T19:34:06.387Z,9.98
2023-02-12T19:36:36.335Z,10.57
2023-02-12T19:39:07.398Z,11.47
2023-02-12T19:41:40.759Z,11.77
2023-02-12T19:44:12.561Z,11.27
2023-02-12T19:46:42.812Z,10.47
2023-02-12T19:49:15.942Z,11.02
2023-02-12T19:51:45.079Z,11.70
2023-02-12T19:54:15.035Z,14.23
2023-02-12T19:56:43.481Z,12.17
2023-02-12T19:59:14.503Z,15.27
2023-02-12T20:01:44.609Z,14.95
2023-02-12T20:04:13.401Z,17.30
2023-02-12T20:06:42.420Z,14.57
2023-02-12T20:09:12.504Z,15.27
2023-02-12T20:11:40.915Z,13.97
2023-02-12T20:14:11.286Z,16.70
2023-02-12T20:16:41.702Z,12.80
2023-02-12T20:19:15.774Z,17.17
2023-02-12T20:21:44.492Z,15.60
2023-02-12T20:24:12.804Z,15.30
2023-02-12T20:26:40.791Z,15.13
2023-02-12T20:29:08.885Z,15.00
2023-02-12T20:31:38.205Z,15.13
2023-02-12T20:34:09.535Z,15.87
2023-02-12T20:36:40.895Z,17.20
2023-02-12T20:39:10.800Z,19.00
2023-02-12T20:41:38.991Z,17.13
2023-02-12T20:44:13.769Z,17.80
2023-02-12T20:46:42.577Z,17.70
2023-02-12T20:49:13.646Z,15.47
2023-02-12T20:54:12.061Z,16.50
2023-02-12T20:56:40.149Z,19.77
2023-02-12T20:59:08.741Z,17.90
2023-02-12T21:01:39.007Z,16.23
2023-02-12T21:04:08.736Z,15.80
2023-02-12T21:06:40.054Z,16.63
2023-02-12T21:09:10.972Z,19.77
2023-02-12T21:11:39.880Z,20.15
2023-02-12T21:14:21.392Z,22.03
2023-02-12T21:16:51.457Z,18.23
2023-02-12T21:19:20.044Z,19.20
2023-02-12T21:21:48.280Z,17.90
2023-02-12T21:24:21.492Z,19.80
2023-02-12T21:26:50.047Z,17.90
2023-02-12T21:29:18.560Z,19.30
2023-02-12T21:31:48.513Z,21.30
2023-02-12T21:34:18.791Z,20.97
2023-02-12T21:36:48.548Z,20.30
2023-02-12T21:39:24.673Z,17.63
2023-02-12T21:41:55.013Z,19.73
2023-02-12T21:44:24.600Z,20.03
2023-02-12T21:46:52.718Z,19.67
2023-02-12T21:49:29.300Z,21.53
2023-02-12T21:52:00.291Z,20.60
2023-02-12T21:54:30.362Z,16.67
2023-02-12T21:56:59.697Z,17.93
2023-02-12T21:59:31.449Z,18.17
2023-02-12T22:02:01.781Z,18.30
2023-02-12T22:04:30.199Z,18.40
2023-02-12T22:07:02.942Z,17.73
2023-02-12T22:09:32.706Z,18.97
2023-02-12T22:12:00.778Z,21.23
2023-02-12T22:14:29.911Z,23.90
2023-02-12T22:16:58.105Z,22.73
2023-02-12T22:19:26.158Z,23.53
2023-02-12T22:21:54.345Z,21.37
2023-02-12T22:24:22.947Z,23.40
2023-02-12T22:26:52.400Z,24.40
2023-02-12T22:29:22.954Z,23.53
2023-02-12T22:31:52.027Z,22.97
2023-02-12T22:34:20.147Z,27.90
2023-02-12T22:36:48.827Z,28.80
2023-02-12T22:39:17.680Z,26.73
2023-02-12T22:41:45.918Z,28.43
2023-02-12T22:44:16.423Z,25.93
2023-02-12T22:46:45.271Z,31.10
2023-02-12T22:49:13.357Z,31.80
2023-02-12T22:51:42.484Z,31.13
2023-02-12T22:54:14.010Z,31.93
2023-02-12T22:56:42.528Z,35.60
2023-02-12T22:59:12.798Z,44.07
2023-02-12T23:01:42.475Z,39.22
2023-02-12T23:04:15.564Z,39.23
2023-02-12T23:06:43.954Z,41.97
2023-02-12T23:09:14.486Z,44.70
2023-02-12T23:11:42.616Z,43.70
2023-02-12T23:14:10.645Z,46.73
2023-02-12T23:16:38.886Z,45.27
2023-02-12T23:19:08.348Z,44.33
2023-02-12T23:21:36.417Z,51.03
2023-02-12T23:24:04.816Z,50.00
2023-02-12T23:26:33.185Z,48.30
2023-02-12T23:29:01.309Z,49.87
2023-02-12T23:31:29.418Z,48.13
2023-02-12T23:33:57.654Z,44.43
2023-02-12T23:36:27.020Z,44.93
2023-02-12T23:38:55.027Z,45.53
2023-02-12T23:41:24.833Z,48.93
2023-02-12T23:43:52.825Z,43.07
2023-02-12T23:46:20.874Z,46.03
2023-02-12T23:48:49.020Z,38.30
2023-02-12T23:51:17.036Z,49.53
2023-02-12T23:53:46.459Z,50.80
2023-02-12T23:56:14.538Z,47.03
2023-02-12T23:58:42.641Z,47.83
